Georgetown, Massachusetts
Current Conditions -  °F | °C
As of 4:54 PM on Saturday 25 Oct 2014 (Local Time) from KLWM Reporting Station
Clear Clear  
Wind Chill: 62°   Ceiling: Unl
Heat Index: 62°   Visibility: 10mi
Dew Point: 40°   Wind: 9mph
Humidity: 44%   Direction: 230°SW
Pressure: 29.58"   Gusts: NA
Location:  42.73°N, 70.99°W
Report Text: KLWM 252054Z 23008KT 10SM CLR 17/04 A2958 RMK AO2 SLP018 T01670044 56019
Loading
Personal Weather Stations






























Interactive Weather Map
Tropical Storm Tracking
New forecast layout! Learn more

10-Day Weather Forecast

Advertisements
Track Severe Weather on mobile